Alagon, Spain
Current Conditions -  °F | °C
As of 4:00 AM on Saturday 22 Nov 2014 (Local Time) from LEZG Reporting Station
Haze Haze  
Wind Chill: 54°   Ceiling: 900
Heat Index: 54°   Visibility: 2mi
Dew Point: 52°   Wind: 0mph
Humidity: 94%   Direction: NA
Pressure: 30.03"   Gusts: NA
Location:  41.77°N, 1.12°W
Report Text: LEZG 220300Z 00000KT 3300 BR SCT005 OVC009 12/11 Q1017
Loading
Personal Weather Stations






























Interactive Weather Map New forecast layout! Learn more

10-Day Weather Forecast

Advertisements
Track Severe Weather on mobile